sensor_id;sensor_type;location;lat;lon;timestamp;P1;durP1;ratioP1;P2;durP2;ratioP2
75090;SDS011;63674;48.048;8.306;2023-11-22T00:00:06;6.37;;;1.83;;
75090;SDS011;63674;48.048;8.306;2023-11-22T00:02:36;6.57;;;1.92;;
75090;SDS011;63674;48.048;8.306;2023-11-22T00:05:05;8.82;;;1.63;;
75090;SDS011;63674;48.048;8.306;2023-11-22T00:07:35;5.70;;;1.75;;
75090;SDS011;63674;48.048;8.306;2023-11-22T00:10:05;7.57;;;2.00;;
75090;SDS011;63674;48.048;8.306;2023-11-22T00:12:36;6.23;;;1.90;;
75090;SDS011;63674;48.048;8.306;2023-11-22T00:15:06;6.10;;;2.17;;
75090;SDS011;63674;48.048;8.306;2023-11-22T00:17:38;7.13;;;2.28;;
75090;SDS011;63674;48.048;8.306;2023-11-22T00:20:07;5.65;;;2.10;;
75090;SDS011;63674;48.048;8.306;2023-11-22T00:22:37;5.50;;;2.00;;
75090;SDS011;63674;48.048;8.306;2023-11-22T00:25:08;7.10;;;1.80;;
75090;SDS011;63674;48.048;8.306;2023-11-22T00:27:40;5.25;;;1.75;;
75090;SDS011;63674;48.048;8.306;2023-11-22T00:30:09;7.63;;;1.90;;
75090;SDS011;63674;48.048;8.306;2023-11-22T00:32:38;5.95;;;1.65;;
75090;SDS011;63674;48.048;8.306;2023-11-22T00:35:07;6.07;;;1.65;;
75090;SDS011;63674;48.048;8.306;2023-11-22T00:37:36;8.57;;;1.90;;
75090;SDS011;63674;48.048;8.306;2023-11-22T00:40:06;6.05;;;2.03;;
75090;SDS011;63674;48.048;8.306;2023-11-22T00:42:38;7.15;;;1.75;;
75090;SDS011;63674;48.048;8.306;2023-11-22T00:45:09;6.75;;;1.58;;
75090;SDS011;63674;48.048;8.306;2023-11-22T00:47:38;7.07;;;1.80;;
75090;SDS011;63674;48.048;8.306;2023-11-22T00:50:07;4.97;;;1.30;;
75090;SDS011;63674;48.048;8.306;2023-11-22T00:52:36;6.20;;;2.00;;
75090;SDS011;63674;48.048;8.306;2023-11-22T00:55:05;4.85;;;1.70;;
75090;SDS011;63674;48.048;8.306;2023-11-22T00:57:36;4.75;;;1.75;;
75090;SDS011;63674;48.048;8.306;2023-11-22T01:00:05;6.55;;;2.15;;
75090;SDS011;63674;48.048;8.306;2023-11-22T01:02:36;4.83;;;1.90;;
75090;SDS011;63674;48.048;8.306;2023-11-22T01:05:06;5.70;;;1.90;;
75090;SDS011;63674;48.048;8.306;2023-11-22T01:07:38;6.60;;;1.90;;
75090;SDS011;63674;48.048;8.306;2023-11-22T01:10:07;8.05;;;2.00;;
75090;SDS011;63674;48.048;8.306;2023-11-22T01:12:38;6.05;;;1.75;;
75090;SDS011;63674;48.048;8.306;2023-11-22T01:15:07;5.80;;;1.97;;
75090;SDS011;63674;48.048;8.306;2023-11-22T01:17:37;5.05;;;1.63;;
75090;SDS011;63674;48.048;8.306;2023-11-22T01:20:06;5.45;;;1.75;;
75090;SDS011;63674;48.048;8.306;2023-11-22T01:22:39;5.57;;;1.60;;
75090;SDS011;63674;48.048;8.306;2023-11-22T01:25:08;5.13;;;1.77;;
75090;SDS011;63674;48.048;8.306;2023-11-22T01:27:38;5.30;;;2.00;;
75090;SDS011;63674;48.048;8.306;2023-11-22T01:30:07;6.82;;;1.50;;
75090;SDS011;63674;48.048;8.306;2023-11-22T01:32:36;5.28;;;1.92;;
75090;SDS011;63674;48.048;8.306;2023-11-22T01:35:05;6.30;;;1.70;;
75090;SDS011;63674;48.048;8.306;2023-11-22T01:37:35;7.22;;;2.00;;
75090;SDS011;63674;48.048;8.306;2023-11-22T01:40:04;5.70;;;1.40;;
75090;SDS011;63674;48.048;8.306;2023-11-22T01:42:36;4.95;;;1.50;;
75090;SDS011;63674;48.048;8.306;2023-11-22T01:45:07;5.15;;;1.48;;
75090;SDS011;63674;48.048;8.306;2023-11-22T01:47:36;5.47;;;1.50;;
75090;SDS011;63674;48.048;8.306;2023-11-22T01:50:06;6.38;;;1.90;;
75090;SDS011;63674;48.048;8.306;2023-11-22T01:52:37;5.27;;;1.30;;
75090;SDS011;63674;48.048;8.306;2023-11-22T01:55:07;4.28;;;1.30;;
75090;SDS011;63674;48.048;8.306;2023-11-22T01:57:37;6.18;;;1.58;;
75090;SDS011;63674;48.048;8.306;2023-11-22T02:00:07;5.18;;;1.60;;
75090;SDS011;63674;48.048;8.306;2023-11-22T02:02:41;4.65;;;1.80;;
75090;SDS011;63674;48.048;8.306;2023-11-22T02:05:11;6.83;;;1.53;;
75090;SDS011;63674;48.048;8.306;2023-11-22T02:07:40;4.95;;;1.50;;
75090;SDS011;63674;48.048;8.306;2023-11-22T02:10:09;6.03;;;1.92;;
75090;SDS011;63674;48.048;8.306;2023-11-22T02:12:39;5.18;;;1.50;;
75090;SDS011;63674;48.048;8.306;2023-11-22T02:15:07;5.18;;;1.65;;
75090;SDS011;63674;48.048;8.306;2023-11-22T02:17:38;6.07;;;1.40;;
75090;SDS011;63674;48.048;8.306;2023-11-22T02:20:07;5.43;;;1.70;;
75090;SDS011;63674;48.048;8.306;2023-11-22T02:22:44;4.70;;;1.40;;
75090;SDS011;63674;48.048;8.306;2023-11-22T02:25:14;5.25;;;1.73;;
75090;SDS011;63674;48.048;8.306;2023-11-22T02:27:43;6.28;;;1.77;;
75090;SDS011;63674;48.048;8.306;2023-11-22T02:30:31;5.23;;;1.70;;
75090;SDS011;63674;48.048;8.306;2023-11-22T02:33:18;5.90;;;1.70;;
75090;SDS011;63674;48.048;8.306;2023-11-22T02:36:05;6.40;;;1.60;;
75090;SDS011;63674;48.048;8.306;2023-11-22T02:38:57;6.65;;;1.73;;
75090;SDS011;63674;48.048;8.306;2023-11-22T02:41:46;6.85;;;2.17;;
75090;SDS011;63674;48.048;8.306;2023-11-22T02:44:33;5.57;;;1.80;;
75090;SDS011;63674;48.048;8.306;2023-11-22T02:47:20;8.27;;;1.98;;
75090;SDS011;63674;48.048;8.306;2023-11-22T02:50:07;6.13;;;2.40;;
75090;SDS011;63674;48.048;8.306;2023-11-22T02:52:56;5.68;;;2.10;;
75090;SDS011;63674;48.048;8.306;2023-11-22T02:55:43;5.75;;;2.17;;
75090;SDS011;63674;48.048;8.306;2023-11-22T02:58:31;6.47;;;1.90;;
75090;SDS011;63674;48.048;8.306;2023-11-22T03:01:19;4.85;;;1.63;;
75090;SDS011;63674;48.048;8.306;2023-11-22T03:04:06;6.55;;;2.00;;
75090;SDS011;63674;48.048;8.306;2023-11-22T03:06:54;4.78;;;1.92;;
75090;SDS011;63674;48.048;8.306;2023-11-22T03:09:41;4.78;;;1.90;;
75090;SDS011;63674;48.048;8.306;2023-11-22T03:12:31;6.53;;;1.50;;
75090;SDS011;63674;48.048;8.306;2023-11-22T03:15:37;4.15;;;1.50;;
75090;SDS011;63674;48.048;8.306;2023-11-22T03:18:24;6.07;;;1.73;;
75090;SDS011;63674;48.048;8.306;2023-11-22T03:21:11;4.55;;;1.65;;
75090;SDS011;63674;48.048;8.306;2023-11-22T03:23:59;5.18;;;1.83;;
75090;SDS011;63674;48.048;8.306;2023-11-22T03:26:49;4.90;;;1.60;;
75090;SDS011;63674;48.048;8.306;2023-11-22T03:29:37;5.22;;;1.52;;
75090;SDS011;63674;48.048;8.306;2023-11-22T03:32:26;4.97;;;1.60;;
75090;SDS011;63674;48.048;8.306;2023-11-22T03:35:14;3.80;;;1.02;;
75090;SDS011;63674;48.048;8.306;2023-11-22T03:38:02;3.38;;;0.90;;
75090;SDS011;63674;48.048;8.306;2023-11-22T03:40:49;3.30;;;0.80;;
75090;SDS011;63674;48.048;8.306;2023-11-22T03:43:36;4.22;;;1.20;;
75090;SDS011;63674;48.048;8.306;2023-11-22T03:46:04;4.05;;;1.40;;
75090;SDS011;63674;48.048;8.306;2023-11-22T03:48:34;3.80;;;1.30;;
75090;SDS011;63674;48.048;8.306;2023-11-22T03:51:03;3.78;;;1.20;;
75090;SDS011;63674;48.048;8.306;2023-11-22T03:53:32;3.40;;;1.00;;
75090;SDS011;63674;48.048;8.306;2023-11-22T03:56:00;3.60;;;0.93;;
75090;SDS011;63674;48.048;8.306;2023-11-22T03:58:29;3.72;;;1.10;;
75090;SDS011;63674;48.048;8.306;2023-11-22T04:00:57;3.45;;;1.10;;
75090;SDS011;63674;48.048;8.306;2023-11-22T04:03:29;3.90;;;1.02;;
75090;SDS011;63674;48.048;8.306;2023-11-22T04:06:00;3.00;;;0.70;;
75090;SDS011;63674;48.048;8.306;2023-11-22T04:08:28;2.95;;;0.73;;
75090;SDS011;63674;48.048;8.306;2023-11-22T04:10:57;3.40;;;0.90;;
75090;SDS011;63674;48.048;8.306;2023-11-22T04:13:26;3.30;;;0.80;;
75090;SDS011;63674;48.048;8.306;2023-11-22T04:15:54;3.08;;;0.70;;
75090;SDS011;63674;48.048;8.306;2023-11-22T04:18:24;3.40;;;0.80;;
75090;SDS011;63674;48.048;8.306;2023-11-22T04:20:53;4.72;;;1.05;;
75090;SDS011;63674;48.048;8.306;2023-11-22T04:23:26;3.72;;;1.17;;
75090;SDS011;63674;48.048;8.306;2023-11-22T04:25:54;3.65;;;0.90;;
75090;SDS011;63674;48.048;8.306;2023-11-22T04:28:24;3.70;;;1.10;;
75090;SDS011;63674;48.048;8.306;2023-11-22T04:30:53;3.70;;;0.93;;
75090;SDS011;63674;48.048;8.306;2023-11-22T04:33:21;4.20;;;1.30;;
75090;SDS011;63674;48.048;8.306;2023-11-22T04:35:50;4.43;;;1.33;;
75090;SDS011;63674;48.048;8.306;2023-11-22T04:38:19;4.43;;;1.30;;
75090;SDS011;63674;48.048;8.306;2023-11-22T04:40:49;4.20;;;1.50;;
75090;SDS011;63674;48.048;8.306;2023-11-22T04:43:17;4.97;;;1.40;;
75090;SDS011;63674;48.048;8.306;2023-11-22T04:45:46;5.43;;;1.60;;
75090;SDS011;63674;48.048;8.306;2023-11-22T04:48:14;4.35;;;1.48;;
75090;SDS011;63674;48.048;8.306;2023-11-22T04:50:43;5.22;;;1.60;;
75090;SDS011;63674;48.048;8.306;2023-11-22T04:53:12;4.63;;;1.48;;
75090;SDS011;63674;48.048;8.306;2023-11-22T04:55:40;4.70;;;1.40;;
75090;SDS011;63674;48.048;8.306;2023-11-22T04:58:10;3.88;;;1.08;;
75090;SDS011;63674;48.048;8.306;2023-11-22T05:00:39;3.50;;;1.00;;
75090;SDS011;63674;48.048;8.306;2023-11-22T05:03:08;3.53;;;0.73;;
75090;SDS011;63674;48.048;8.306;2023-11-22T05:05:37;3.85;;;0.80;;
75090;SDS011;63674;48.048;8.306;2023-11-22T05:08:05;3.20;;;0.80;;
75090;SDS011;63674;48.048;8.306;2023-11-22T05:10:34;3.42;;;1.10;;
75090;SDS011;63674;48.048;8.306;2023-11-22T05:13:03;4.25;;;1.23;;
75090;SDS011;63674;48.048;8.306;2023-11-22T05:15:33;4.22;;;1.38;;
75090;SDS011;63674;48.048;8.306;2023-11-22T05:18:01;4.55;;;1.58;;
75090;SDS011;63674;48.048;8.306;2023-11-22T05:20:31;3.80;;;1.10;;
75090;SDS011;63674;48.048;8.306;2023-11-22T05:23:00;3.90;;;1.15;;
75090;SDS011;63674;48.048;8.306;2023-11-22T05:25:31;4.07;;;1.50;;
75090;SDS011;63674;48.048;8.306;2023-11-22T05:27:59;4.10;;;1.08;;
75090;SDS011;63674;48.048;8.306;2023-11-22T05:30:30;4.00;;;1.15;;
75090;SDS011;63674;48.048;8.306;2023-11-22T05:33:00;3.67;;;0.90;;
75090;SDS011;63674;48.048;8.306;2023-11-22T05:35:28;5.55;;;1.02;;
75090;SDS011;63674;48.048;8.306;2023-11-22T05:37:57;3.60;;;1.10;;
75090;SDS011;63674;48.048;8.306;2023-11-22T05:40:25;3.42;;;1.00;;
75090;SDS011;63674;48.048;8.306;2023-11-22T05:42:54;3.83;;;1.40;;
75090;SDS011;63674;48.048;8.306;2023-11-22T05:45:23;3.37;;;1.00;;
75090;SDS011;63674;48.048;8.306;2023-11-22T05:47:52;3.97;;;1.08;;
75090;SDS011;63674;48.048;8.306;2023-11-22T05:50:22;4.45;;;1.33;;
75090;SDS011;63674;48.048;8.306;2023-11-22T05:52:50;3.80;;;1.08;;
75090;SDS011;63674;48.048;8.306;2023-11-22T05:55:19;4.10;;;1.30;;
75090;SDS011;63674;48.048;8.306;2023-11-22T05:57:49;4.00;;;1.33;;
75090;SDS011;63674;48.048;8.306;2023-11-22T06:00:17;4.43;;;1.40;;
75090;SDS011;63674;48.048;8.306;2023-11-22T06:02:47;4.03;;;1.38;;
75090;SDS011;63674;48.048;8.306;2023-11-22T06:05:16;4.25;;;1.35;;
75090;SDS011;63674;48.048;8.306;2023-11-22T06:07:46;4.25;;;1.40;;
75090;SDS011;63674;48.048;8.306;2023-11-22T06:10:14;4.43;;;1.70;;
75090;SDS011;63674;48.048;8.306;2023-11-22T06:12:43;4.60;;;1.55;;
75090;SDS011;63674;48.048;8.306;2023-11-22T06:15:12;4.93;;;1.77;;
75090;SDS011;63674;48.048;8.306;2023-11-22T06:17:41;4.40;;;1.60;;
75090;SDS011;63674;48.048;8.306;2023-11-22T06:20:10;5.70;;;1.60;;
75090;SDS011;63674;48.048;8.306;2023-11-22T06:22:40;5.00;;;1.63;;
75090;SDS011;63674;48.048;8.306;2023-11-22T06:25:10;5.85;;;1.92;;
75090;SDS011;63674;48.048;8.306;2023-11-22T06:27:39;4.80;;;2.03;;
75090;SDS011;63674;48.048;8.306;2023-11-22T06:30:07;4.50;;;1.80;;
75090;SDS011;63674;48.048;8.306;2023-11-22T06:32:37;4.95;;;1.90;;
75090;SDS011;63674;48.048;8.306;2023-11-22T06:35:06;4.90;;;1.90;;
75090;SDS011;63674;48.048;8.306;2023-11-22T06:37:36;4.43;;;1.65;;
75090;SDS011;63674;48.048;8.306;2023-11-22T06:40:05;5.10;;;1.80;;
75090;SDS011;63674;48.048;8.306;2023-11-22T06:42:37;4.68;;;1.60;;
75090;SDS011;63674;48.048;8.306;2023-11-22T06:45:06;5.75;;;1.75;;
75090;SDS011;63674;48.048;8.306;2023-11-22T06:47:36;4.10;;;1.30;;
75090;SDS011;63674;48.048;8.306;2023-11-22T06:50:05;7.05;;;1.30;;
75090;SDS011;63674;48.048;8.306;2023-11-22T06:52:37;4.00;;;1.40;;
75090;SDS011;63674;48.048;8.306;2023-11-22T06:55:08;3.95;;;1.35;;
75090;SDS011;63674;48.048;8.306;2023-11-22T06:57:38;4.32;;;1.30;;
75090;SDS011;63674;48.048;8.306;2023-11-22T07:00:08;4.53;;;1.23;;
75090;SDS011;63674;48.048;8.306;2023-11-22T07:02:38;4.13;;;1.50;;
75090;SDS011;63674;48.048;8.306;2023-11-22T07:05:08;4.43;;;1.65;;
75090;SDS011;63674;48.048;8.306;2023-11-22T07:07:37;4.60;;;1.75;;
75090;SDS011;63674;48.048;8.306;2023-11-22T07:10:07;5.65;;;2.13;;
75090;SDS011;63674;48.048;8.306;2023-11-22T07:12:39;5.47;;;1.97;;
75090;SDS011;63674;48.048;8.306;2023-11-22T07:15:10;6.05;;;2.30;;
75090;SDS011;63674;48.048;8.306;2023-11-22T07:17:38;6.43;;;2.90;;
75090;SDS011;63674;48.048;8.306;2023-11-22T07:20:07;5.97;;;2.50;;
75090;SDS011;63674;48.048;8.306;2023-11-22T07:22:43;6.63;;;2.95;;
75090;SDS011;63674;48.048;8.306;2023-11-22T07:25:12;7.07;;;3.27;;
75090;SDS011;63674;48.048;8.306;2023-11-22T07:27:46;12.25;;;3.13;;
75090;SDS011;63674;48.048;8.306;2023-11-22T07:30:17;7.95;;;3.33;;
75090;SDS011;63674;48.048;8.306;2023-11-22T07:32:47;6.90;;;2.85;;
75090;SDS011;63674;48.048;8.306;2023-11-22T07:35:18;6.97;;;3.00;;
75090;SDS011;63674;48.048;8.306;2023-11-22T07:37:48;7.10;;;3.10;;
75090;SDS011;63674;48.048;8.306;2023-11-22T07:40:18;10.20;;;2.90;;
75090;SDS011;63674;48.048;8.306;2023-11-22T07:42:50;6.82;;;2.65;;
75090;SDS011;63674;48.048;8.306;2023-11-22T07:45:19;6.75;;;3.00;;
75090;SDS011;63674;48.048;8.306;2023-11-22T07:47:49;8.10;;;3.50;;
75090;SDS011;63674;48.048;8.306;2023-11-22T07:50:19;7.03;;;3.03;;
75090;SDS011;63674;48.048;8.306;2023-11-22T07:52:48;7.22;;;3.00;;
75090;SDS011;63674;48.048;8.306;2023-11-22T07:55:17;8.50;;;3.10;;
75090;SDS011;63674;48.048;8.306;2023-11-22T07:57:45;7.90;;;3.55;;
75090;SDS011;63674;48.048;8.306;2023-11-22T08:00:17;8.48;;;3.45;;
75090;SDS011;63674;48.048;8.306;2023-11-22T08:02:46;7.50;;;2.93;;
75090;SDS011;63674;48.048;8.306;2023-11-22T08:05:16;7.97;;;3.17;;
75090;SDS011;63674;48.048;8.306;2023-11-22T08:07:46;7.88;;;3.08;;
75090;SDS011;63674;48.048;8.306;2023-11-22T08:10:17;5.70;;;2.40;;
75090;SDS011;63674;48.048;8.306;2023-11-22T08:12:46;6.05;;;2.70;;
75090;SDS011;63674;48.048;8.306;2023-11-22T08:15:18;6.00;;;2.40;;
75090;SDS011;63674;48.048;8.306;2023-11-22T08:17:48;6.57;;;2.63;;
75090;SDS011;63674;48.048;8.306;2023-11-22T08:20:17;6.60;;;2.80;;
75090;SDS011;63674;48.048;8.306;2023-11-22T08:22:46;6.50;;;2.90;;
75090;SDS011;63674;48.048;8.306;2023-11-22T08:25:17;6.45;;;2.50;;
75090;SDS011;63674;48.048;8.306;2023-11-22T08:27:46;8.87;;;2.43;;
75090;SDS011;63674;48.048;8.306;2023-11-22T08:30:14;6.93;;;3.13;;
75090;SDS011;63674;48.048;8.306;2023-11-22T08:32:46;6.50;;;3.00;;
75090;SDS011;63674;48.048;8.306;2023-11-22T08:35:20;6.45;;;2.70;;
75090;SDS011;63674;48.048;8.306;2023-11-22T08:37:50;6.28;;;2.92;;
75090;SDS011;63674;48.048;8.306;2023-11-22T08:40:19;5.83;;;2.20;;
75090;SDS011;63674;48.048;8.306;2023-11-22T08:42:48;5.55;;;2.50;;
75090;SDS011;63674;48.048;8.306;2023-11-22T08:45:17;5.72;;;2.00;;
75090;SDS011;63674;48.048;8.306;2023-11-22T08:47:47;6.30;;;2.80;;
75090;SDS011;63674;48.048;8.306;2023-11-22T08:50:18;6.80;;;2.63;;
75090;SDS011;63674;48.048;8.306;2023-11-22T08:52:46;5.90;;;2.20;;
75090;SDS011;63674;48.048;8.306;2023-11-22T08:55:15;4.50;;;1.60;;
75090;SDS011;63674;48.048;8.306;2023-11-22T08:57:43;4.03;;;1.50;;
75090;SDS011;63674;48.048;8.306;2023-11-22T09:00:13;4.70;;;1.45;;
75090;SDS011;63674;48.048;8.306;2023-11-22T09:02:45;4.47;;;1.50;;
75090;SDS011;63674;48.048;8.306;2023-11-22T09:05:16;4.43;;;1.50;;
75090;SDS011;63674;48.048;8.306;2023-11-22T09:07:45;4.63;;;1.48;;
75090;SDS011;63674;48.048;8.306;2023-11-22T09:10:14;4.32;;;1.50;;
75090;SDS011;63674;48.048;8.306;2023-11-22T09:12:45;7.65;;;3.13;;
75090;SDS011;63674;48.048;8.306;2023-11-22T09:15:15;5.38;;;1.98;;
75090;SDS011;63674;48.048;8.306;2023-11-22T09:17:47;5.33;;;2.13;;
75090;SDS011;63674;48.048;8.306;2023-11-22T09:20:20;4.75;;;1.50;;
75090;SDS011;63674;48.048;8.306;2023-11-22T09:22:50;6.07;;;2.20;;
75090;SDS011;63674;48.048;8.306;2023-11-22T09:25:21;5.72;;;2.00;;
75090;SDS011;63674;48.048;8.306;2023-11-22T09:27:52;5.60;;;2.25;;
75090;SDS011;63674;48.048;8.306;2023-11-22T09:30:22;4.83;;;1.83;;
75090;SDS011;63674;48.048;8.306;2023-11-22T09:33:04;4.80;;;1.85;;
75090;SDS011;63674;48.048;8.306;2023-11-22T09:35:37;5.15;;;2.30;;
75090;SDS011;63674;48.048;8.306;2023-11-22T09:38:07;9.00;;;3.13;;
75090;SDS011;63674;48.048;8.306;2023-11-22T09:40:40;5.65;;;2.25;;
75090;SDS011;63674;48.048;8.306;2023-11-22T09:43:11;5.20;;;1.90;;
75090;SDS011;63674;48.048;8.306;2023-11-22T09:45:46;5.53;;;2.40;;
75090;SDS011;63674;48.048;8.306;2023-11-22T09:48:22;5.22;;;2.20;;
75090;SDS011;63674;48.048;8.306;2023-11-22T09:51:02;5.10;;;1.85;;
75090;SDS011;63674;48.048;8.306;2023-11-22T09:53:36;6.65;;;2.72;;
75090;SDS011;63674;48.048;8.306;2023-11-22T09:56:17;5.53;;;2.37;;
75090;SDS011;63674;48.048;8.306;2023-11-22T09:58:48;5.78;;;2.60;;
75090;SDS011;63674;48.048;8.306;2023-11-22T10:01:21;6.28;;;2.30;;
75090;SDS011;63674;48.048;8.306;2023-11-22T10:03:50;7.30;;;2.42;;
75090;SDS011;63674;48.048;8.306;2023-11-22T10:06:20;5.65;;;2.60;;
75090;SDS011;63674;48.048;8.306;2023-11-22T10:08:50;6.13;;;2.47;;
75090;SDS011;63674;48.048;8.306;2023-11-22T10:11:20;5.65;;;2.00;;
75090;SDS011;63674;48.048;8.306;2023-11-22T10:13:48;5.70;;;2.47;;
75090;SDS011;63674;48.048;8.306;2023-11-22T10:16:18;6.20;;;2.85;;
75090;SDS011;63674;48.048;8.306;2023-11-22T10:18:48;6.18;;;2.70;;
75090;SDS011;63674;48.048;8.306;2023-11-22T10:21:22;7.27;;;3.03;;
75090;SDS011;63674;48.048;8.306;2023-11-22T10:23:53;7.30;;;3.97;;
75090;SDS011;63674;48.048;8.306;2023-11-22T10:26:23;8.45;;;3.63;;
75090;SDS011;63674;48.048;8.306;2023-11-22T10:28:55;7.35;;;3.60;;
75090;SDS011;63674;48.048;8.306;2023-11-22T10:31:26;9.18;;;3.50;;
75090;SDS011;63674;48.048;8.306;2023-11-22T10:33:55;7.97;;;3.63;;
75090;SDS011;63674;48.048;8.306;2023-11-22T10:36:26;8.30;;;3.55;;
75090;SDS011;63674;48.048;8.306;2023-11-22T10:38:55;12.48;;;5.20;;
75090;SDS011;63674;48.048;8.306;2023-11-22T10:41:24;7.22;;;3.00;;
75090;SDS011;63674;48.048;8.306;2023-11-22T10:43:54;6.45;;;2.97;;
75090;SDS011;63674;48.048;8.306;2023-11-22T10:46:24;6.43;;;2.90;;
75090;SDS011;63674;48.048;8.306;2023-11-22T10:48:57;6.38;;;3.03;;
75090;SDS011;63674;48.048;8.306;2023-11-22T10:51:30;7.22;;;2.97;;
75090;SDS011;63674;48.048;8.306;2023-11-22T10:54:00;7.30;;;3.28;;
75090;SDS011;63674;48.048;8.306;2023-11-22T10:56:32;10.38;;;5.05;;
75090;SDS011;63674;48.048;8.306;2023-11-22T10:59:09;10.17;;;5.03;;
75090;SDS011;63674;48.048;8.306;2023-11-22T11:01:43;7.07;;;3.35;;
75090;SDS011;63674;48.048;8.306;2023-11-22T11:04:17;7.15;;;3.38;;
75090;SDS011;63674;48.048;8.306;2023-11-22T11:06:51;6.75;;;2.90;;
75090;SDS011;63674;48.048;8.306;2023-11-22T11:09:23;6.07;;;2.33;;
75090;SDS011;63674;48.048;8.306;2023-11-22T11:11:59;5.53;;;2.23;;
75090;SDS011;63674;48.048;8.306;2023-11-22T11:14:34;7.63;;;2.30;;
75090;SDS011;63674;48.048;8.306;2023-11-22T11:17:03;6.07;;;2.60;;
75090;SDS011;63674;48.048;8.306;2023-11-22T11:19:33;8.38;;;3.83;;
75090;SDS011;63674;48.048;8.306;2023-11-22T11:22:06;7.13;;;2.97;;
75090;SDS011;63674;48.048;8.306;2023-11-22T11:24:40;6.17;;;2.70;;
75090;SDS011;63674;48.048;8.306;2023-11-22T11:27:11;6.40;;;3.10;;
75090;SDS011;63674;48.048;8.306;2023-11-22T11:29:40;7.15;;;3.25;;
75090;SDS011;63674;48.048;8.306;2023-11-22T11:32:10;7.00;;;3.10;;
75090;SDS011;63674;48.048;8.306;2023-11-22T11:34:46;7.57;;;3.30;;
75090;SDS011;63674;48.048;8.306;2023-11-22T11:37:19;5.67;;;2.57;;
75090;SDS011;63674;48.048;8.306;2023-11-22T11:39:48;6.40;;;3.03;;
75090;SDS011;63674;48.048;8.306;2023-11-22T11:42:16;7.60;;;3.30;;
75090;SDS011;63674;48.048;8.306;2023-11-22T11:44:52;7.13;;;2.53;;
75090;SDS011;63674;48.048;8.306;2023-11-22T11:47:35;6.47;;;2.70;;
75090;SDS011;63674;48.048;8.306;2023-11-22T11:50:04;6.80;;;2.40;;
75090;SDS011;63674;48.048;8.306;2023-11-22T11:52:37;5.43;;;2.13;;
75090;SDS011;63674;48.048;8.306;2023-11-22T11:55:06;7.05;;;3.33;;
75090;SDS011;63674;48.048;8.306;2023-11-22T11:57:35;6.90;;;2.97;;
75090;SDS011;63674;48.048;8.306;2023-11-22T12:00:04;6.10;;;2.50;;
75090;SDS011;63674;48.048;8.306;2023-11-22T12:02:36;5.97;;;2.57;;
75090;SDS011;63674;48.048;8.306;2023-11-22T12:05:05;8.32;;;2.70;;
75090;SDS011;63674;48.048;8.306;2023-11-22T12:07:37;10.07;;;4.32;;
75090;SDS011;63674;48.048;8.306;2023-11-22T12:10:06;7.13;;;3.10;;
75090;SDS011;63674;48.048;8.306;2023-11-22T12:12:36;7.00;;;3.40;;
75090;SDS011;63674;48.048;8.306;2023-11-22T12:15:06;8.70;;;4.00;;
75090;SDS011;63674;48.048;8.306;2023-11-22T12:17:37;14.10;;;7.22;;
75090;SDS011;63674;48.048;8.306;2023-11-22T12:20:12;10.05;;;4.20;;
75090;SDS011;63674;48.048;8.306;2023-11-22T12:22:47;6.97;;;3.30;;
75090;SDS011;63674;48.048;8.306;2023-11-22T12:25:16;7.03;;;3.08;;
75090;SDS011;63674;48.048;8.306;2023-11-22T12:27:46;6.10;;;2.50;;
75090;SDS011;63674;48.048;8.306;2023-11-22T12:30:28;8.15;;;4.60;;
75090;SDS011;63674;48.048;8.306;2023-11-22T12:33:00;8.77;;;5.00;;
75090;SDS011;63674;48.048;8.306;2023-11-22T12:35:30;6.57;;;3.00;;
75090;SDS011;63674;48.048;8.306;2023-11-22T12:38:02;6.55;;;2.92;;
75090;SDS011;63674;48.048;8.306;2023-11-22T12:40:33;6.30;;;2.90;;
75090;SDS011;63674;48.048;8.306;2023-11-22T12:43:02;8.50;;;4.40;;
75090;SDS011;63674;48.048;8.306;2023-11-22T12:45:33;6.55;;;2.95;;
75090;SDS011;63674;48.048;8.306;2023-11-22T12:48:21;5.22;;;2.05;;
75090;SDS011;63674;48.048;8.306;2023-11-22T12:50:52;5.68;;;2.70;;
75090;SDS011;63674;48.048;8.306;2023-11-22T12:53:23;6.03;;;2.47;;
75090;SDS011;63674;48.048;8.306;2023-11-22T12:55:55;8.48;;;3.30;;
75090;SDS011;63674;48.048;8.306;2023-11-22T12:58:25;13.68;;;8.55;;
75090;SDS011;63674;48.048;8.306;2023-11-22T13:00:54;7.97;;;4.50;;
75090;SDS011;63674;48.048;8.306;2023-11-22T13:03:27;7.57;;;4.47;;
75090;SDS011;63674;48.048;8.306;2023-11-22T13:05:56;6.87;;;3.27;;
75090;SDS011;63674;48.048;8.306;2023-11-22T13:08:26;5.93;;;2.50;;
75090;SDS011;63674;48.048;8.306;2023-11-22T13:10:57;5.18;;;2.38;;
75090;SDS011;63674;48.048;8.306;2023-11-22T13:13:26;5.25;;;2.00;;
75090;SDS011;63674;48.048;8.306;2023-11-22T13:15:57;11.05;;;5.50;;
75090;SDS011;63674;48.048;8.306;2023-11-22T13:18:26;8.37;;;4.20;;
75090;SDS011;63674;48.048;8.306;2023-11-22T13:20:55;13.43;;;6.65;;
75090;SDS011;63674;48.048;8.306;2023-11-22T13:23:24;7.82;;;3.70;;
75090;SDS011;63674;48.048;8.306;2023-11-22T13:25:54;5.95;;;2.83;;
75090;SDS011;63674;48.048;8.306;2023-11-22T13:28:23;6.32;;;2.40;;
75090;SDS011;63674;48.048;8.306;2023-11-22T13:30:52;7.27;;;2.83;;
75090;SDS011;63674;48.048;8.306;2023-11-22T13:33:21;6.40;;;2.88;;
75090;SDS011;63674;48.048;8.306;2023-11-22T13:35:50;6.55;;;2.92;;
75090;SDS011;63674;48.048;8.306;2023-11-22T13:38:19;6.53;;;2.50;;
75090;SDS011;63674;48.048;8.306;2023-11-22T13:40:49;6.47;;;2.35;;
75090;SDS011;63674;48.048;8.306;2023-11-22T13:43:17;5.37;;;2.30;;
75090;SDS011;63674;48.048;8.306;2023-11-22T13:45:46;5.20;;;2.22;;
75090;SDS011;63674;48.048;8.306;2023-11-22T13:48:17;6.32;;;2.38;;
75090;SDS011;63674;48.048;8.306;2023-11-22T13:50:45;7.07;;;2.50;;
75090;SDS011;63674;48.048;8.306;2023-11-22T13:53:14;5.72;;;2.47;;
75090;SDS011;63674;48.048;8.306;2023-11-22T13:55:49;5.47;;;2.07;;
75090;SDS011;63674;48.048;8.306;2023-11-22T13:58:20;6.43;;;2.30;;
75090;SDS011;63674;48.048;8.306;2023-11-22T14:00:48;6.18;;;2.53;;
75090;SDS011;63674;48.048;8.306;2023-11-22T14:03:21;5.45;;;2.00;;
75090;SDS011;63674;48.048;8.306;2023-11-22T14:05:49;5.05;;;2.15;;
75090;SDS011;63674;48.048;8.306;2023-11-22T14:08:18;5.63;;;2.20;;
75090;SDS011;63674;48.048;8.306;2023-11-22T14:10:48;5.95;;;2.38;;
75090;SDS011;63674;48.048;8.306;2023-11-22T14:13:17;6.13;;;2.30;;
75090;SDS011;63674;48.048;8.306;2023-11-22T14:15:47;10.68;;;2.90;;
75090;SDS011;63674;48.048;8.306;2023-11-22T14:18:17;6.15;;;2.40;;
75090;SDS011;63674;48.048;8.306;2023-11-22T14:20:46;7.50;;;2.70;;
75090;SDS011;63674;48.048;8.306;2023-11-22T14:23:15;5.82;;;2.40;;
75090;SDS011;63674;48.048;8.306;2023-11-22T14:25:44;8.90;;;3.30;;
75090;SDS011;63674;48.048;8.306;2023-11-22T14:28:14;6.57;;;2.60;;
75090;SDS011;63674;48.048;8.306;2023-11-22T14:30:42;6.38;;;2.55;;
75090;SDS011;63674;48.048;8.306;2023-11-22T14:33:12;7.37;;;2.77;;
75090;SDS011;63674;48.048;8.306;2023-11-22T14:35:42;8.63;;;3.20;;
75090;SDS011;63674;48.048;8.306;2023-11-22T14:38:12;7.35;;;3.22;;
75090;SDS011;63674;48.048;8.306;2023-11-22T14:40:40;8.68;;;3.40;;
75090;SDS011;63674;48.048;8.306;2023-11-22T14:43:09;9.25;;;4.65;;
75090;SDS011;63674;48.048;8.306;2023-11-22T14:45:39;7.70;;;3.50;;
75090;SDS011;63674;48.048;8.306;2023-11-22T14:48:08;9.60;;;4.05;;
75090;SDS011;63674;48.048;8.306;2023-11-22T14:50:42;8.65;;;3.97;;
75090;SDS011;63674;48.048;8.306;2023-11-22T14:53:11;10.30;;;4.25;;
75090;SDS011;63674;48.048;8.306;2023-11-22T14:55:39;9.18;;;4.20;;
75090;SDS011;63674;48.048;8.306;2023-11-22T14:58:09;9.90;;;4.33;;
75090;SDS011;63674;48.048;8.306;2023-11-22T15:00:39;10.63;;;4.47;;
75090;SDS011;63674;48.048;8.306;2023-11-22T15:03:08;9.98;;;4.47;;
75090;SDS011;63674;48.048;8.306;2023-11-22T15:05:37;13.38;;;4.40;;
75090;SDS011;63674;48.048;8.306;2023-11-22T15:08:06;10.02;;;4.75;;
75090;SDS011;63674;48.048;8.306;2023-11-22T15:10:35;9.90;;;4.30;;
75090;SDS011;63674;48.048;8.306;2023-11-22T15:13:03;13.27;;;4.55;;